sensor_id;sensor_type;location;lat;lon;timestamp;pressure;altitude;pressure_sealevel;temperature;humidity
50057;BME280;36875;49.468;11.200;2023-11-19T00:00:50;97876.22;;;20.05;41.46
50057;BME280;36875;49.468;11.200;2023-11-19T00:03:16;97876.53;;;20.03;41.69
50057;BME280;36875;49.468;11.200;2023-11-19T00:05:43;97872.19;;;20.02;41.35
50057;BME280;36875;49.468;11.200;2023-11-19T00:08:08;97866.25;;;20.00;41.28
50057;BME280;36875;49.468;11.200;2023-11-19T00:10:34;97852.59;;;20.00;41.31
50057;BME280;36875;49.468;11.200;2023-11-19T00:13:01;97838.44;;;19.98;41.22
50057;BME280;36875;49.468;11.200;2023-11-19T00:15:28;97828.63;;;19.97;41.41
50057;BME280;36875;49.468;11.200;2023-11-19T00:17:53;97830.84;;;19.95;41.35
50057;BME280;36875;49.468;11.200;2023-11-19T00:20:20;97843.72;;;19.94;41.56
50057;BME280;36875;49.468;11.200;2023-11-19T00:22:47;97852.53;;;19.91;41.58
50057;BME280;36875;49.468;11.200;2023-11-19T00:25:17;97850.09;;;19.90;41.32
50057;BME280;36875;49.468;11.200;2023-11-19T00:27:42;97844.75;;;19.84;41.84
50057;BME280;36875;49.468;11.200;2023-11-19T00:30:14;97837.88;;;19.87;41.61
50057;BME280;36875;49.468;11.200;2023-11-19T00:32:39;97830.00;;;19.86;41.62
50057;BME280;36875;49.468;11.200;2023-11-19T00:35:05;97831.09;;;19.84;41.91
50057;BME280;36875;49.468;11.200;2023-11-19T00:37:31;97830.63;;;19.82;41.62
50057;BME280;36875;49.468;11.200;2023-11-19T00:39:57;97832.06;;;19.80;41.52
50057;BME280;36875;49.468;11.200;2023-11-19T00:42:23;97823.03;;;19.79;41.61
50057;BME280;36875;49.468;11.200;2023-11-19T00:44:49;97820.94;;;19.76;42.02
50057;BME280;36875;49.468;11.200;2023-11-19T00:47:16;97810.03;;;19.76;41.97
50057;BME280;36875;49.468;11.200;2023-11-19T00:49:42;97798.63;;;19.74;42.14
50057;BME280;36875;49.468;11.200;2023-11-19T00:52:08;97791.53;;;19.73;41.74
50057;BME280;36875;49.468;11.200;2023-11-19T00:54:33;97790.22;;;19.71;41.63
50057;BME280;36875;49.468;11.200;2023-11-19T00:56:59;97791.31;;;19.70;41.96
50057;BME280;36875;49.468;11.200;2023-11-19T00:59:24;97786.66;;;19.70;41.69
50057;BME280;36875;49.468;11.200;2023-11-19T01:01:50;97786.16;;;19.68;41.87
50057;BME280;36875;49.468;11.200;2023-11-19T01:04:17;97784.56;;;19.67;41.75
50057;BME280;36875;49.468;11.200;2023-11-19T01:06:43;97779.41;;;19.65;41.78
50057;BME280;36875;49.468;11.200;2023-11-19T01:09:08;97781.66;;;19.63;41.87
50057;BME280;36875;49.468;11.200;2023-11-19T01:11:34;97799.97;;;19.63;42.18
50057;BME280;36875;49.468;11.200;2023-11-19T01:14:00;97794.50;;;19.63;41.96
50057;BME280;36875;49.468;11.200;2023-11-19T01:16:26;97796.72;;;19.61;41.94
50057;BME280;36875;49.468;11.200;2023-11-19T01:18:51;97806.03;;;19.60;42.22
50057;BME280;36875;49.468;11.200;2023-11-19T01:21:19;97800.88;;;19.58;42.05
50057;BME280;36875;49.468;11.200;2023-11-19T01:23:44;97800.09;;;19.58;42.09
50057;BME280;36875;49.468;11.200;2023-11-19T01:26:10;97794.13;;;19.56;41.72
50057;BME280;36875;49.468;11.200;2023-11-19T01:28:37;97790.09;;;19.53;42.33
50057;BME280;36875;49.468;11.200;2023-11-19T01:31:04;97789.28;;;19.53;41.95
50057;BME280;36875;49.468;11.200;2023-11-19T01:33:30;97783.84;;;19.53;41.98
50057;BME280;36875;49.468;11.200;2023-11-19T01:35:55;97784.13;;;19.51;41.77
50057;BME280;36875;49.468;11.200;2023-11-19T01:38:25;97789.91;;;19.50;42.10
50057;BME280;36875;49.468;11.200;2023-11-19T01:40:50;97782.84;;;19.49;42.23
50057;BME280;36875;49.468;11.200;2023-11-19T01:43:34;97771.09;;;19.48;41.90
50057;BME280;36875;49.468;11.200;2023-11-19T01:45:59;97763.25;;;19.47;42.13
50057;BME280;36875;49.468;11.200;2023-11-19T01:48:25;97763.25;;;19.47;42.24
50057;BME280;36875;49.468;11.200;2023-11-19T01:50:52;97756.97;;;19.46;42.22
50057;BME280;36875;49.468;11.200;2023-11-19T01:53:18;97748.59;;;19.42;41.99
50057;BME280;36875;49.468;11.200;2023-11-19T01:55:46;97738.81;;;19.41;42.29
50057;BME280;36875;49.468;11.200;2023-11-19T01:58:12;97730.13;;;19.39;41.99
50057;BME280;36875;49.468;11.200;2023-11-19T02:00:38;97707.47;;;19.39;42.08
50057;BME280;36875;49.468;11.200;2023-11-19T02:03:05;97706.69;;;19.38;42.07
50057;BME280;36875;49.468;11.200;2023-11-19T02:05:32;97705.88;;;19.38;42.44
50057;BME280;36875;49.468;11.200;2023-11-19T02:07:58;97702.66;;;19.36;42.25
50057;BME280;36875;49.468;11.200;2023-11-19T02:10:23;97696.38;;;19.35;42.32
50057;BME280;36875;49.468;11.200;2023-11-19T02:12:51;97702.97;;;19.34;42.46
50057;BME280;36875;49.468;11.200;2023-11-19T02:15:17;97695.56;;;19.35;42.33
50057;BME280;36875;49.468;11.200;2023-11-19T02:17:44;97693.47;;;19.32;42.56
50057;BME280;36875;49.468;11.200;2023-11-19T02:20:10;97692.19;;;19.29;42.10
50057;BME280;36875;49.468;11.200;2023-11-19T02:22:38;97700.38;;;19.29;42.30
50057;BME280;36875;49.468;11.200;2023-11-19T02:25:06;97696.03;;;19.28;42.61
50057;BME280;36875;49.468;11.200;2023-11-19T02:27:43;97696.03;;;19.28;42.24
50057;BME280;36875;49.468;11.200;2023-11-19T02:30:11;97701.81;;;19.26;42.28
50057;BME280;36875;49.468;11.200;2023-11-19T02:32:36;97703.69;;;19.26;42.28
50057;BME280;36875;49.468;11.200;2023-11-19T02:35:04;97702.91;;;19.25;42.34
50057;BME280;36875;49.468;11.200;2023-11-19T02:37:30;97705.94;;;19.24;42.22
50057;BME280;36875;49.468;11.200;2023-11-19T02:39:55;97698.88;;;19.23;42.29
50057;BME280;36875;49.468;11.200;2023-11-19T02:42:21;97697.25;;;19.22;42.32
50057;BME280;36875;49.468;11.200;2023-11-19T02:44:48;97703.84;;;19.21;42.35
50057;BME280;36875;49.468;11.200;2023-11-19T02:47:14;97701.13;;;19.21;42.58
50057;BME280;36875;49.468;11.200;2023-11-19T02:49:39;97703.38;;;19.19;42.52
50057;BME280;36875;49.468;11.200;2023-11-19T02:52:06;97688.59;;;19.20;42.74
50057;BME280;36875;49.468;11.200;2023-11-19T02:54:31;97694.66;;;19.17;42.42
50057;BME280;36875;49.468;11.200;2023-11-19T02:57:00;97700.13;;;19.17;42.63
50057;BME280;36875;49.468;11.200;2023-11-19T02:59:26;97698.53;;;19.16;42.53
50057;BME280;36875;49.468;11.200;2023-11-19T03:01:54;97694.16;;;19.15;42.43
50057;BME280;36875;49.468;11.200;2023-11-19T03:04:20;97698.03;;;19.14;42.95
50057;BME280;36875;49.468;11.200;2023-11-19T03:06:45;97690.16;;;19.12;42.71
50057;BME280;36875;49.468;11.200;2023-11-19T03:09:11;97690.16;;;19.12;42.55
50057;BME280;36875;49.468;11.200;2023-11-19T03:11:36;97679.53;;;19.11;42.48
50057;BME280;36875;49.468;11.200;2023-11-19T03:14:02;97675.19;;;19.10;42.46
50057;BME280;36875;49.468;11.200;2023-11-19T03:16:28;97675.53;;;19.08;42.42
50057;BME280;36875;49.468;11.200;2023-11-19T03:18:55;97673.91;;;19.07;43.08
50057;BME280;36875;49.468;11.200;2023-11-19T03:21:27;97667.66;;;19.06;42.48
50057;BME280;36875;49.468;11.200;2023-11-19T03:23:53;97665.22;;;19.05;42.63
50057;BME280;36875;49.468;11.200;2023-11-19T03:26:18;97664.44;;;19.04;42.57
50057;BME280;36875;49.468;11.200;2023-11-19T03:28:44;97657.03;;;19.05;42.75
50057;BME280;36875;49.468;11.200;2023-11-19T03:31:09;97649.97;;;19.04;42.78
50057;BME280;36875;49.468;11.200;2023-11-19T03:33:34;97653.03;;;19.02;42.48
50057;BME280;36875;49.468;11.200;2023-11-19T03:36:01;97656.88;;;19.01;42.65
50057;BME280;36875;49.468;11.200;2023-11-19T03:38:27;97665.03;;;19.01;42.70
50057;BME280;36875;49.468;11.200;2023-11-19T03:40:52;97654.75;;;18.98;43.04
50057;BME280;36875;49.468;11.200;2023-11-19T03:43:18;97630.19;;;18.98;42.48
50057;BME280;36875;49.468;11.200;2023-11-19T03:45:44;97606.78;;;18.97;42.91
50057;BME280;36875;49.468;11.200;2023-11-19T03:48:10;97598.91;;;18.96;42.71
50057;BME280;36875;49.468;11.200;2023-11-19T03:50:35;97583.66;;;18.95;42.62
50057;BME280;36875;49.468;11.200;2023-11-19T03:53:02;97571.97;;;18.94;43.02
50057;BME280;36875;49.468;11.200;2023-11-19T03:55:28;97530.25;;;18.94;43.12
50057;BME280;36875;49.468;11.200;2023-11-19T03:57:54;97519.66;;;18.92;42.79
50057;BME280;36875;49.468;11.200;2023-11-19T04:00:20;97508.75;;;18.92;42.73
50057;BME280;36875;49.468;11.200;2023-11-19T04:02:46;97505.53;;;18.90;42.88
50057;BME280;36875;49.468;11.200;2023-11-19T04:05:12;97508.28;;;18.90;42.98
50057;BME280;36875;49.468;11.200;2023-11-19T04:07:37;97519.47;;;18.88;42.98
50057;BME280;36875;49.468;11.200;2023-11-19T04:10:05;97533.72;;;18.85;42.91
50057;BME280;36875;49.468;11.200;2023-11-19T04:12:31;97529.09;;;18.86;42.75
50057;BME280;36875;49.468;11.200;2023-11-19T04:14:56;97568.38;;;18.85;42.88
50057;BME280;36875;49.468;11.200;2023-11-19T04:17:22;97570.63;;;18.83;43.11
50057;BME280;36875;49.468;11.200;2023-11-19T04:19:48;97556.97;;;18.83;42.85
50057;BME280;36875;49.468;11.200;2023-11-19T04:22:14;97561.94;;;18.81;43.18
50057;BME280;36875;49.468;11.200;2023-11-19T04:24:39;97606.84;;;18.83;43.16
50057;BME280;36875;49.468;11.200;2023-11-19T04:27:07;97595.47;;;18.81;43.17
50057;BME280;36875;49.468;11.200;2023-11-19T04:29:32;97591.41;;;18.79;42.90
50057;BME280;36875;49.468;11.200;2023-11-19T04:31:58;97585.13;;;18.78;42.95
50057;BME280;36875;49.468;11.200;2023-11-19T04:34:24;97589.00;;;18.77;43.24
50057;BME280;36875;49.468;11.200;2023-11-19T04:36:49;97584.34;;;18.78;43.04
50057;BME280;36875;49.468;11.200;2023-11-19T04:39:15;97585.78;;;18.75;43.06
50057;BME280;36875;49.468;11.200;2023-11-19T04:41:47;97578.69;;;18.74;43.12
50057;BME280;36875;49.468;11.200;2023-11-19T04:44:18;97584.94;;;18.75;42.95
50057;BME280;36875;49.468;11.200;2023-11-19T04:46:44;97592.97;;;18.71;43.01
50057;BME280;36875;49.468;11.200;2023-11-19T04:49:10;97595.34;;;18.73;43.31
50057;BME280;36875;49.468;11.200;2023-11-19T04:51:38;97602.75;;;18.72;42.90
50057;BME280;36875;49.468;11.200;2023-11-19T04:54:04;97588.63;;;18.70;43.47
50057;BME280;36875;49.468;11.200;2023-11-19T04:56:30;97585.09;;;18.69;43.05
50057;BME280;36875;49.468;11.200;2023-11-19T04:58:55;97591.34;;;18.70;43.15
50057;BME280;36875;49.468;11.200;2023-11-19T05:01:22;97594.38;;;18.68;43.22
50057;BME280;36875;49.468;11.200;2023-11-19T05:03:47;97594.97;;;18.65;43.54
50057;BME280;36875;49.468;11.200;2023-11-19T05:06:13;97590.66;;;18.64;43.39
50057;BME280;36875;49.468;11.200;2023-11-19T05:08:38;97585.41;;;18.68;43.16
50057;BME280;36875;49.468;11.200;2023-11-19T05:11:04;97581.72;;;18.73;43.04
50057;BME280;36875;49.468;11.200;2023-11-19T05:13:31;97583.53;;;18.77;43.60
50057;BME280;36875;49.468;11.200;2023-11-19T05:15:56;97579.28;;;18.85;43.28
50057;BME280;36875;49.468;11.200;2023-11-19T05:18:23;97579.16;;;18.90;43.03
50057;BME280;36875;49.468;11.200;2023-11-19T05:20:48;97580.00;;;18.99;42.72
50057;BME280;36875;49.468;11.200;2023-11-19T05:23:14;97573.00;;;19.07;42.77
50057;BME280;36875;49.468;11.200;2023-11-19T05:25:39;97571.41;;;19.15;42.41
50057;BME280;36875;49.468;11.200;2023-11-19T05:28:05;97566.31;;;19.22;42.36
50057;BME280;36875;49.468;11.200;2023-11-19T05:30:30;97556.56;;;19.30;42.10
50057;BME280;36875;49.468;11.200;2023-11-19T05:32:56;97556.91;;;19.37;42.31
50057;BME280;36875;49.468;11.200;2023-11-19T05:35:23;97552.59;;;19.44;42.10
50057;BME280;36875;49.468;11.200;2023-11-19T05:37:48;97546.81;;;19.46;42.09
50057;BME280;36875;49.468;11.200;2023-11-19T05:40:15;97552.28;;;19.46;42.08
50057;BME280;36875;49.468;11.200;2023-11-19T05:42:41;97547.00;;;19.50;41.98
50057;BME280;36875;49.468;11.200;2023-11-19T05:45:07;97540.44;;;19.51;42.03
50057;BME280;36875;49.468;11.200;2023-11-19T05:47:33;97538.94;;;19.44;42.03
50057;BME280;36875;49.468;11.200;2023-11-19T05:49:58;97533.50;;;19.44;41.93
50057;BME280;36875;49.468;11.200;2023-11-19T05:52:25;97532.84;;;19.39;42.27
50057;BME280;36875;49.468;11.200;2023-11-19T05:54:50;97531.88;;;19.35;42.36
50057;BME280;36875;49.468;11.200;2023-11-19T05:57:19;97524.81;;;19.34;42.09
50057;BME280;36875;49.468;11.200;2023-11-19T05:59:50;97525.88;;;19.24;42.47
50057;BME280;36875;49.468;11.200;2023-11-19T06:02:16;97519.47;;;19.20;42.46
50057;BME280;36875;49.468;11.200;2023-11-19T06:04:41;97519.28;;;19.16;42.50
50057;BME280;36875;49.468;11.200;2023-11-19T06:07:09;97525.69;;;19.12;42.99
50057;BME280;36875;49.468;11.200;2023-11-19T06:09:36;97529.66;;;19.05;42.97
50057;BME280;36875;49.468;11.200;2023-11-19T06:12:01;97525.66;;;19.03;43.04
50057;BME280;36875;49.468;11.200;2023-11-19T06:14:27;97537.19;;;19.00;42.84
50057;BME280;36875;49.468;11.200;2023-11-19T06:16:53;97534.28;;;18.96;42.78
50057;BME280;36875;49.468;11.200;2023-11-19T06:19:18;97533.28;;;18.92;43.19
50057;BME280;36875;49.468;11.200;2023-11-19T06:21:44;97528.78;;;18.87;43.25
50057;BME280;36875;49.468;11.200;2023-11-19T06:24:09;97531.00;;;18.85;43.03
50057;BME280;36875;49.468;11.200;2023-11-19T06:26:36;97543.94;;;18.80;43.18
50057;BME280;36875;49.468;11.200;2023-11-19T06:29:02;97543.44;;;18.78;43.49
50057;BME280;36875;49.468;11.200;2023-11-19T06:31:27;97539.44;;;18.75;43.69
50057;BME280;36875;49.468;11.200;2023-11-19T06:33:53;97542.47;;;18.74;43.26
50057;BME280;36875;49.468;11.200;2023-11-19T06:36:18;97539.75;;;18.74;43.69
50057;BME280;36875;49.468;11.200;2023-11-19T06:38:44;97540.03;;;18.72;43.37
50057;BME280;36875;49.468;11.200;2023-11-19T06:41:09;97529.44;;;18.71;43.46
50057;BME280;36875;49.468;11.200;2023-11-19T06:43:36;97536.34;;;18.68;43.74
50057;BME280;36875;49.468;11.200;2023-11-19T06:46:02;97536.66;;;18.66;43.54
50057;BME280;36875;49.468;11.200;2023-11-19T06:48:27;97533.13;;;18.66;43.59
50057;BME280;36875;49.468;11.200;2023-11-19T06:50:53;97535.03;;;18.65;43.57
50057;BME280;36875;49.468;11.200;2023-11-19T06:53:19;97528.28;;;18.63;43.57
50057;BME280;36875;49.468;11.200;2023-11-19T06:55:44;97532.94;;;18.62;43.45
50057;BME280;36875;49.468;11.200;2023-11-19T06:58:10;97530.72;;;18.64;43.61
50057;BME280;36875;49.468;11.200;2023-11-19T07:00:36;97526.84;;;18.65;43.61
50057;BME280;36875;49.468;11.200;2023-11-19T07:03:02;97533.91;;;18.66;43.67
50057;BME280;36875;49.468;11.200;2023-11-19T07:05:27;97542.09;;;18.66;43.61
50057;BME280;36875;49.468;11.200;2023-11-19T07:07:53;97535.53;;;18.67;43.19
50057;BME280;36875;49.468;11.200;2023-11-19T07:10:19;97541.50;;;18.69;43.64
50057;BME280;36875;49.468;11.200;2023-11-19T07:12:45;97541.00;;;18.67;43.69
50057;BME280;36875;49.468;11.200;2023-11-19T07:15:10;97536.34;;;18.68;43.67
50057;BME280;36875;49.468;11.200;2023-11-19T07:17:40;97539.06;;;18.68;43.81
50057;BME280;36875;49.468;11.200;2023-11-19T07:20:06;97544.34;;;18.64;43.55
50057;BME280;36875;49.468;11.200;2023-11-19T07:22:32;97536.16;;;18.64;43.86
50057;BME280;36875;49.468;11.200;2023-11-19T07:24:57;97535.66;;;18.62;44.06
50057;BME280;36875;49.468;11.200;2023-11-19T07:27:23;97551.72;;;18.64;43.70
50057;BME280;36875;49.468;11.200;2023-11-19T07:29:49;97549.00;;;18.64;44.11
50057;BME280;36875;49.468;11.200;2023-11-19T07:32:15;97545.63;;;18.67;43.87
50057;BME280;36875;49.468;11.200;2023-11-19T07:34:42;97550.75;;;18.68;43.91
50057;BME280;36875;49.468;11.200;2023-11-19T07:37:10;97558.34;;;18.72;44.15
50057;BME280;36875;49.468;11.200;2023-11-19T07:39:35;97561.38;;;18.70;44.11
50057;BME280;36875;49.468;11.200;2023-11-19T07:42:03;97558.34;;;18.72;44.72
50057;BME280;36875;49.468;11.200;2023-11-19T07:44:28;97559.94;;;18.73;44.25
50057;BME280;36875;49.468;11.200;2023-11-19T07:46:54;97566.50;;;18.72;44.27
50057;BME280;36875;49.468;11.200;2023-11-19T07:49:19;97565.38;;;18.73;44.76
50057;BME280;36875;49.468;11.200;2023-11-19T07:51:46;97567.31;;;18.72;44.60
50057;BME280;36875;49.468;11.200;2023-11-19T07:54:12;97563.28;;;18.69;44.78
50057;BME280;36875;49.468;11.200;2023-11-19T07:56:39;97556.72;;;18.71;44.71
50057;BME280;36875;49.468;11.200;2023-11-19T07:59:04;97568.75;;;18.69;44.68
50057;BME280;36875;49.468;11.200;2023-11-19T08:01:30;97569.53;;;18.70;44.67
50057;BME280;36875;49.468;11.200;2023-11-19T08:03:55;97565.19;;;18.69;45.14
50057;BME280;36875;49.468;11.200;2023-11-19T08:06:21;97563.09;;;18.66;44.97
50057;BME280;36875;49.468;11.200;2023-11-19T08:08:48;97568.06;;;18.64;44.69
50057;BME280;36875;49.468;11.200;2023-11-19T08:11:13;97564.84;;;18.62;45.14
50057;BME280;36875;49.468;11.200;2023-11-19T08:13:40;97567.88;;;18.60;45.50
50057;BME280;36875;49.468;11.200;2023-11-19T08:16:06;97569.78;;;18.60;45.48
50057;BME280;36875;49.468;11.200;2023-11-19T08:18:32;97575.88;;;18.57;45.15
50057;BME280;36875;49.468;11.200;2023-11-19T08:20:57;97569.59;;;18.56;45.71
50057;BME280;36875;49.468;11.200;2023-11-19T08:23:24;97559.81;;;18.55;45.17
50057;BME280;36875;49.468;11.200;2023-11-19T08:25:52;97559.53;;;18.57;45.16
50057;BME280;36875;49.468;11.200;2023-11-19T08:28:18;97551.66;;;18.55;45.12
50057;BME280;36875;49.468;11.200;2023-11-19T08:30:43;97556.78;;;18.57;45.60
50057;BME280;36875;49.468;11.200;2023-11-19T08:33:09;97550.84;;;18.55;45.55
50057;BME280;36875;49.468;11.200;2023-11-19T08:35:35;97551.66;;;18.55;45.56
50057;BME280;36875;49.468;11.200;2023-11-19T08:38:00;97539.94;;;18.55;45.79
50057;BME280;36875;49.468;11.200;2023-11-19T08:40:27;97546.19;;;18.55;45.90
50057;BME280;36875;49.468;11.200;2023-11-19T08:42:54;97540.44;;;18.57;46.29
50057;BME280;36875;49.468;11.200;2023-11-19T08:45:19;97544.75;;;18.58;46.29
50057;BME280;36875;49.468;11.200;2023-11-19T08:47:44;97552.13;;;18.57;46.05
50057;BME280;36875;49.468;11.200;2023-11-19T08:50:11;97542.53;;;18.60;46.35
50057;BME280;36875;49.468;11.200;2023-11-19T08:52:36;97550.69;;;18.60;46.51
50057;BME280;36875;49.468;11.200;2023-11-19T08:55:02;97549.28;;;18.62;46.55
50057;BME280;36875;49.468;11.200;2023-11-19T08:57:28;97545.78;;;18.62;46.58
50057;BME280;36875;49.468;11.200;2023-11-19T08:59:55;97547.06;;;18.64;46.87
50057;BME280;36875;49.468;11.200;2023-11-19T09:02:20;97543.38;;;18.69;46.91
50057;BME280;36875;49.468;11.200;2023-11-19T09:04:46;97542.59;;;18.68;47.00
50057;BME280;36875;49.468;11.200;2023-11-19T09:07:11;97539.88;;;18.68;46.90
50057;BME280;36875;49.468;11.200;2023-11-19T09:09:37;97537.13;;;18.68;47.15
50057;BME280;36875;49.468;11.200;2023-11-19T09:12:03;97531.56;;;18.74;46.78
50057;BME280;36875;49.468;11.200;2023-11-19T09:14:29;97538.13;;;18.73;46.94
50057;BME280;36875;49.468;11.200;2023-11-19T09:16:57;97542.97;;;18.76;47.33
50057;BME280;36875;49.468;11.200;2023-11-19T09:19:23;97539.13;;;18.77;47.46
50057;BME280;36875;49.468;11.200;2023-11-19T09:21:48;97544.47;;;18.82;47.34
50057;BME280;36875;49.468;11.200;2023-11-19T09:24:14;97541.13;;;18.85;47.42
50057;BME280;36875;49.468;11.200;2023-11-19T09:26:40;97566.03;;;18.92;47.38
50057;BME280;36875;49.468;11.200;2023-11-19T09:29:06;97556.91;;;18.97;47.42
50057;BME280;36875;49.468;11.200;2023-11-19T09:31:33;97559.66;;;19.05;47.63
50057;BME280;36875;49.468;11.200;2023-11-19T09:34:00;97561.16;;;19.12;47.67
50057;BME280;36875;49.468;11.200;2023-11-19T09:36:26;97566.31;;;19.22;46.81
50057;BME280;36875;49.468;11.200;2023-11-19T09:38:52;97576.31;;;19.26;46.84
50057;BME280;36875;49.468;11.200;2023-11-19T09:41:17;97571.81;;;19.31;46.71
50057;BME280;36875;49.468;11.200;2023-11-19T09:43:45;97574.25;;;19.32;47.22
50057;BME280;36875;49.468;11.200;2023-11-19T09:46:12;97580.19;;;19.34;46.72
50057;BME280;36875;49.468;11.200;2023-11-19T09:48:39;97572.97;;;19.38;47.19
50057;BME280;36875;49.468;11.200;2023-11-19T09:51:09;97568.47;;;19.42;47.30
50057;BME280;36875;49.468;11.200;2023-11-19T09:53:35;97566.59;;;19.52;47.01
50057;BME280;36875;49.468;11.200;2023-11-19T09:56:02;97563.88;;;19.52;46.78
50057;BME280;36875;49.468;11.200;2023-11-19T09:58:28;97564.88;;;19.56;47.11
50057;BME280;36875;49.468;11.200;2023-11-19T10:00:54;97562.97;;;19.65;47.02
50057;BME280;36875;49.468;11.200;2023-11-19T10:03:20;97556.84;;;19.68;46.86
50057;BME280;36875;49.468;11.200;2023-11-19T10:05:46;97552.91;;;19.74;47.26
50057;BME280;36875;49.468;11.200;2023-11-19T10:08:13;97559.31;;;19.78;47.43
50057;BME280;36875;49.468;11.200;2023-11-19T10:10:39;97553.84;;;19.78;47.47
50057;BME280;36875;49.468;11.200;2023-11-19T10:13:05;97549.84;;;19.84;47.53
50057;BME280;36875;49.468;11.200;2023-11-19T10:15:36;97551.16;;;19.87;47.79
50057;BME280;36875;49.468;11.200;2023-11-19T10:18:02;97543.94;;;20.00;47.85
50057;BME280;36875;49.468;11.200;2023-11-19T10:20:35;97539.41;;;19.95;47.51
50057;BME280;36875;49.468;11.200;2023-11-19T10:23:00;97544.25;;;19.98;48.09
50057;BME280;36875;49.468;11.200;2023-11-19T10:25:29;97547.31;;;19.97;47.95
50057;BME280;36875;49.468;11.200;2023-11-19T10:27:56;97543.28;;;20.03;48.19
50057;BME280;36875;49.468;11.200;2023-11-19T10:30:22;97544.41;;;20.19;48.63
50057;BME280;36875;49.468;11.200;2023-11-19T10:33:03;97530.59;;;20.16;48.15
50057;BME280;36875;49.468;11.200;2023-11-19T10:35:29;97529.63;;;20.03;48.77
50057;BME280;36875;49.468;11.200;2023-11-19T10:37:55;97532.38;;;19.94;48.88
50057;BME280;36875;49.468;11.200;2023-11-19T10:40:20;97532.19;;;19.99;48.81
50057;BME280;36875;49.468;11.200;2023-11-19T10:42:47;97534.44;;;20.06;48.67
50057;BME280;36875;49.468;11.200;2023-11-19T10:45:22;97536.38;;;20.14;48.83
50057;BME280;36875;49.468;11.200;2023-11-19T10:47:50;97536.53;;;20.18;48.32
50057;BME280;36875;49.468;11.200;2023-11-19T10:50:16;97532.22;;;20.26;48.46
50057;BME280;36875;49.468;11.200;2023-11-19T10:52:43;97524.66;;;20.22;48.03
50057;BME280;36875;49.468;11.200;2023-11-19T10:55:11;97522.72;;;20.32;48.04
50057;BME280;36875;49.468;11.200;2023-11-19T10:57:39;97527.53;;;20.44;47.85
50057;BME280;36875;49.468;11.200;2023-11-19T11:00:12;97537.16;;;20.58;47.74
50057;BME280;36875;49.468;11.200;2023-11-19T11:02:45;97537.84;;;20.64;47.36
50057;BME280;36875;49.468;11.200;2023-11-19T11:05:16;97533.66;;;20.67;47.00
50057;BME280;36875;49.468;11.200;2023-11-19T11:07:44;97528.81;;;20.64;47.19
50057;BME280;36875;49.468;11.200;2023-11-19T11:10:11;97534.91;;;20.69;47.58
50057;BME280;36875;49.468;11.200;2023-11-19T11:12:40;97540.22;;;20.66;48.12
50057;BME280;36875;49.468;11.200;2023-11-19T11:15:08;97541.06;;;20.66;48.17
50057;BME280;36875;49.468;11.200;2023-11-19T11:17:39;97539.28;;;20.62;47.97
50057;BME280;36875;49.468;11.200;2023-11-19T11:20:05;97534.28;;;20.64;48.65
50057;BME280;36875;49.468;11.200;2023-11-19T11:22:42;97536.22;;;20.72;48.40
50057;BME280;36875;49.468;11.200;2023-11-19T11:25:27;97525.44;;;20.67;48.60
50057;BME280;36875;49.468;11.200;2023-11-19T11:28:05;97525.28;;;20.63;48.76
50057;BME280;36875;49.468;11.200;2023-11-19T11:30:46;97513.88;;;20.70;49.06
50057;BME280;36875;49.468;11.200;2023-11-19T11:33:26;97523.19;;;20.69;48.69
50057;BME280;36875;49.468;11.200;2023-11-19T11:36:06;97519.03;;;20.63;48.91
50057;BME280;36875;49.468;11.200;2023-11-19T11:38:36;97513.22;;;20.55;48.53
50057;BME280;36875;49.468;11.200;2023-11-19T11:41:18;97506.28;;;20.49;48.57
50057;BME280;36875;49.468;11.200;2023-11-19T11:43:45;97507.44;;;20.48;49.56
50057;BME280;36875;49.468;11.200;2023-11-19T11:49:12;97508.69;;;20.59;49.53
50057;BME280;36875;49.468;11.200;2023-11-19T11:52:03;97504.69;;;20.66;49.30
50057;BME280;36875;49.468;11.200;2023-11-19T11:54:29;97506.78;;;20.69;50.18
50057;BME280;36875;49.468;11.200;2023-11-19T11:57:03;97504.22;;;20.64;49.90
50057;BME280;36875;49.468;11.200;2023-11-19T11:59:36;97496.84;;;20.64;49.96
50057;BME280;36875;49.468;11.200;2023-11-19T12:02:03;97499.72;;;20.68;50.55
50057;BME280;36875;49.468;11.200;2023-11-19T12:04:30;97484.25;;;20.72;49.86
50057;BME280;36875;49.468;11.200;2023-11-19T12:07:05;97493.59;;;20.71;49.71
50057;BME280;36875;49.468;11.200;2023-11-19T12:09:31;97488.91;;;20.71;50.12
50057;BME280;36875;49.468;11.200;2023-11-19T12:12:07;97483.31;;;20.68;50.20
50057;BME280;36875;49.468;11.200;2023-11-19T12:15:00;97483.13;;;20.73;50.53
50057;BME280;36875;49.468;11.200;2023-11-19T12:17:42;97476.84;;;20.81;50.30
50057;BME280;36875;49.468;11.200;2023-11-19T12:20:11;97476.97;;;20.85;50.27
50057;BME280;36875;49.468;11.200;2023-11-19T12:22:37;97467.47;;;20.82;50.24
50057;BME280;36875;49.468;11.200;2023-11-19T12:25:04;97469.91;;;20.84;50.15
50057;BME280;36875;49.468;11.200;2023-11-19T12:27:30;97450.44;;;20.85;49.63
50057;BME280;36875;49.468;11.200;2023-11-19T12:29:56;97461.81;;;20.96;49.84
50057;BME280;36875;49.468;11.200;2023-11-19T12:32:22;97461.19;;;20.90;49.60
50057;BME280;36875;49.468;11.200;2023-11-19T12:34:47;97452.47;;;20.97;49.47
50057;BME280;36875;49.468;11.200;2023-11-19T12:37:14;97462.59;;;20.96;49.67
50057;BME280;36875;49.468;11.200;2023-11-19T12:39:40;97461.44;;;21.06;49.33
50057;BME280;36875;49.468;11.200;2023-11-19T12:42:06;97449.50;;;21.11;49.21
50057;BME280;36875;49.468;11.200;2023-11-19T12:44:31;97452.13;;;21.28;48.18
50057;BME280;36875;49.468;11.200;2023-11-19T12:47:03;97445.19;;;21.40;48.56
50057;BME280;36875;49.468;11.200;2023-11-19T12:49:28;97451.78;;;21.38;48.12
50057;BME280;36875;49.468;11.200;2023-11-19T12:51:54;97449.97;;;21.43;48.16